Time;durP1;ratioP1;P1;durP2;ratioP2;P2;SDS_P1;SDS_P2;PMS_P1;PMS_P2;Temp;Humidity;BMP_temperature;BMP_pressure;BME280_temperature;BME280_humidity;BME280_pressure;Samples;Min_cycle;Max_cycle;Signal;HPM_P1;HPM_P2
2024/03/18 00:00:14;;;;;;;8.65;5.32;;;12.10;99.90;;;;;;5037932;28;20029;-83
2024/03/18 00:02:48;;;;;;;6.37;5.00;;;12.10;99.90;;;;;;5055787;28;20176;-84
2024/03/18 00:05:15;;;;;;;6.18;4.90;;;12.20;99.90;;;;;;5020850;28;20271;-83
2024/03/18 00:07:45;;;;;;;7.15;5.45;;;12.10;99.90;;;;;;5037816;28;20108;-83
2024/03/18 00:10:12;;;;;;;7.18;5.47;;;12.10;99.90;;;;;;5037473;28;20025;-83
2024/03/18 00:12:42;;;;;;;6.85;5.35;;;12.10;99.90;;;;;;5021305;28;20048;-82
2024/03/18 00:15:10;;;;;;;7.93;5.68;;;12.10;99.90;;;;;;5037659;28;20047;-84
2024/03/18 00:17:36;;;;;;;6.72;5.43;;;12.20;99.90;;;;;;5037470;28;20055;-83
2024/03/18 00:20:12;;;;;;;6.03;5.22;;;12.20;99.90;;;;;;5037494;28;20100;-83
2024/03/18 00:22:42;;;;;;;5.85;5.18;;;12.20;99.90;;;;;;5037200;28;20052;-83
2024/03/18 00:25:11;;;;;;;5.38;4.78;;;12.10;99.90;;;;;;5020739;28;20075;-83
2024/03/18 00:27:37;;;;;;;6.47;5.68;;;12.20;99.90;;;;;;5037244;28;20017;-83
2024/03/18 00:30:04;;;;;;;7.25;5.55;;;12.20;99.90;;;;;;5055214;28;20033;-83
2024/03/18 00:32:30;;;;;;;6.72;5.78;;;12.20;99.90;;;;;;5037173;28;20029;-84
2024/03/18 00:34:57;;;;;;;6.13;5.40;;;12.20;99.90;;;;;;5037117;28;20385;-83
2024/03/18 00:37:23;;;;;;;6.15;5.43;;;12.20;99.90;;;;;;5037638;28;20055;-84
2024/03/18 00:39:52;;;;;;;6.78;5.22;;;12.20;99.90;;;;;;5020747;28;20116;-85
2024/03/18 00:42:18;;;;;;;5.63;4.65;;;12.20;99.90;;;;;;5021216;28;20047;-83
2024/03/18 00:44:43;;;;;;;7.40;5.28;;;12.20;99.90;;;;;;5055142;28;20484;-83
2024/03/18 00:47:10;;;;;;;6.40;5.18;;;12.20;99.90;;;;;;5045580;28;20017;-83
2024/03/18 00:49:36;;;;;;;6.60;5.28;;;12.20;99.90;;;;;;5078462;28;20016;-81
2024/03/18 00:52:02;;;;;;;6.88;5.70;;;12.20;99.90;;;;;;5061731;28;20013;-82
2024/03/18 00:54:28;;;;;;;8.35;5.90;;;12.20;99.90;;;;;;5044766;28;20076;-83
2024/03/18 00:56:53;;;;;;;8.15;5.28;;;12.30;99.90;;;;;;5056859;28;20029;-82
2024/03/18 00:59:20;;;;;;;9.50;5.40;;;12.20;99.90;;;;;;5021658;28;20021;-82
2024/03/18 01:01:45;;;;;;;8.10;5.68;;;12.20;99.90;;;;;;5037293;28;20107;-84
2024/03/18 01:04:11;;;;;;;6.95;5.25;;;12.30;99.90;;;;;;5037372;28;20460;-83
2024/03/18 01:06:37;;;;;;;5.85;5.22;;;12.30;99.90;;;;;;5036836;28;20072;-83
2024/03/18 01:09:06;;;;;;;7.22;5.80;;;12.30;99.90;;;;;;5054449;28;20036;-83
2024/03/18 01:11:31;;;;;;;6.72;4.75;;;12.30;99.90;;;;;;5054540;28;20029;-83
2024/03/18 01:14:01;;;;;;;7.75;5.95;;;12.30;99.90;;;;;;5036167;28;20158;-83
2024/03/18 01:16:26;;;;;;;8.63;5.70;;;12.30;99.90;;;;;;5003831;28;20144;-84
2024/03/18 01:18:54;;;;;;;6.60;5.90;;;12.30;99.90;;;;;;5019814;28;20122;-81
2024/03/18 01:21:19;;;;;;;7.88;5.63;;;12.30;99.90;;;;;;5036043;28;20109;-84
2024/03/18 01:23:48;;;;;;;7.35;6.00;;;12.30;99.90;;;;;;5019854;28;20052;-83
2024/03/18 01:26:14;;;;;;;8.48;6.20;;;12.30;99.90;;;;;;5020075;28;20031;-84
2024/03/18 01:28:41;;;;;;;7.40;6.10;;;12.20;99.90;;;;;;5053798;28;20100;-82
2024/03/18 01:31:06;;;;;;;8.32;6.15;;;12.30;99.90;;;;;;5036127;28;20029;-83
2024/03/18 01:33:35;;;;;;;8.45;6.47;;;12.30;99.90;;;;;;5053899;28;20037;-83
2024/03/18 01:36:04;;;;;;;7.47;6.00;;;12.30;99.90;;;;;;5035948;28;20025;-83
2024/03/18 01:38:30;;;;;;;7.82;6.40;;;12.30;99.90;;;;;;5053887;28;20033;-83
2024/03/18 01:40:56;;;;;;;9.00;6.40;;;12.30;99.90;;;;;;5036169;28;20507;-84
2024/03/18 01:43:23;;;;;;;9.75;6.60;;;12.30;99.90;;;;;;5036207;28;20032;-83
2024/03/18 01:45:49;;;;;;;8.20;6.20;;;12.30;99.90;;;;;;5036014;28;20056;-84
2024/03/18 01:48:21;;;;;;;6.82;6.13;;;12.30;99.90;;;;;;5038564;28;20032;-83
2024/03/18 01:50:47;;;;;;;7.13;6.00;;;12.40;99.90;;;;;;5020651;28;20115;-83
2024/03/18 01:53:13;;;;;;;7.30;6.07;;;12.40;99.90;;;;;;5054088;28;20114;-83
2024/03/18 01:55:40;;;;;;;8.95;6.00;;;12.30;99.90;;;;;;5036164;28;20033;-83
2024/03/18 01:58:06;;;;;;;8.35;6.72;;;12.30;99.90;;;;;;5019315;28;20060;-83
2024/03/18 02:00:35;;;;;;;7.80;6.43;;;12.30;99.90;;;;;;5019327;28;20082;-84
2024/03/18 02:03:06;;;;;;;7.82;7.03;;;12.40;99.90;;;;;;5019897;28;20036;-83
2024/03/18 02:05:32;;;;;;;9.55;7.00;;;12.40;99.90;;;;;;5035657;28;20037;-83
2024/03/18 02:07:59;;;;;;;8.82;7.18;;;12.40;99.90;;;;;;5036195;28;20036;-82
2024/03/18 02:10:25;;;;;;;8.15;7.35;;;12.40;99.90;;;;;;5035598;28;20078;-83
2024/03/18 02:12:52;;;;;;;10.57;7.80;;;12.40;99.90;;;;;;5037703;28;20099;-83
2024/03/18 02:15:19;;;;;;;8.68;7.25;;;12.40;99.90;;;;;;5040140;28;20086;-83
2024/03/18 02:17:45;;;;;;;10.88;8.15;;;12.40;99.90;;;;;;5040442;28;20045;-82
2024/03/18 02:20:12;;;;;;;9.18;7.80;;;12.40;99.90;;;;;;5040657;28;20025;-84
2024/03/18 02:22:40;;;;;;;9.85;7.90;;;12.40;99.90;;;;;;5050731;28;20017;-81
2024/03/18 02:25:08;;;;;;;10.40;8.18;;;12.40;99.90;;;;;;5048161;28;20020;-82
2024/03/18 02:27:34;;;;;;;10.23;8.73;;;12.40;99.90;;;;;;5046849;28;20020;-81
2024/03/18 02:30:00;;;;;;;10.50;8.30;;;12.40;99.90;;;;;;5047496;28;20025;-83
2024/03/18 02:32:27;;;;;;;9.68;8.48;;;12.40;99.90;;;;;;5053905;28;20032;-84
2024/03/18 02:34:53;;;;;;;12.05;8.77;;;12.40;99.90;;;;;;5023596;28;20045;-82
2024/03/18 02:37:18;;;;;;;10.35;8.93;;;12.40;99.90;;;;;;5023485;28;20021;-83
2024/03/18 02:39:44;;;;;;;9.38;7.78;;;12.40;99.90;;;;;;5039835;28;20036;-83
2024/03/18 02:42:10;;;;;;;11.70;9.25;;;12.40;99.90;;;;;;5022881;28;20048;-82
2024/03/18 02:44:36;;;;;;;12.57;9.65;;;12.40;99.90;;;;;;5022933;28;20461;-83
2024/03/18 02:47:02;;;;;;;10.60;9.50;;;12.40;99.90;;;;;;5023037;28;20017;-83
2024/03/18 02:49:28;;;;;;;12.40;9.43;;;12.50;99.90;;;;;;5022609;28;20549;-83
2024/03/18 02:51:53;;;;;;;10.70;9.45;;;12.40;99.90;;;;;;5057112;28;20096;-84
2024/03/18 02:54:19;;;;;;;11.45;9.35;;;12.40;99.90;;;;;;5039365;28;20036;-84
2024/03/18 02:56:45;;;;;;;12.80;9.82;;;12.40;99.90;;;;;;5039329;28;20116;-84
2024/03/18 02:59:10;;;;;;;11.18;9.93;;;12.50;99.90;;;;;;5022388;28;20388;-83
2024/03/18 03:01:36;;;;;;;12.75;9.18;;;12.40;99.90;;;;;;5022636;28;20037;-84
2024/03/18 03:04:03;;;;;;;10.77;8.77;;;12.50;99.90;;;;;;5039106;28;20021;-82
2024/03/18 03:06:29;;;;;;;11.35;9.88;;;12.50;99.90;;;;;;5039195;28;20029;-85
2024/03/18 03:08:54;;;;;;;11.48;9.52;;;12.50;99.90;;;;;;5022436;28;20541;-84
2024/03/18 03:11:20;;;;;;;12.43;10.40;;;12.50;99.90;;;;;;5039137;28;20111;-83
2024/03/18 03:13:46;;;;;;;11.35;9.18;;;12.50;99.90;;;;;;5038747;28;20029;-84
2024/03/18 03:16:12;;;;;;;11.82;9.60;;;12.50;99.90;;;;;;5038730;28;20037;-84
2024/03/18 03:18:40;;;;;;;10.50;9.40;;;12.40;99.90;;;;;;5035269;28;20512;-84
2024/03/18 03:21:06;;;;;;;10.57;9.45;;;12.50;99.90;;;;;;5035276;28;20022;-84
2024/03/18 03:23:33;;;;;;;10.60;9.40;;;12.50;99.90;;;;;;5017858;28;20596;-83
2024/03/18 03:25:58;;;;;;;11.32;9.40;;;12.50;99.90;;;;;;5018784;28;20038;-85
2024/03/18 03:28:24;;;;;;;10.85;9.13;;;12.50;99.90;;;;;;5034991;28;20357;-84
2024/03/18 03:31:03;;;;;;;10.32;9.25;;;12.50;99.90;;;;;;5034637;28;20013;-83
2024/03/18 03:33:28;;;;;;;10.88;9.60;;;12.50;99.90;;;;;;5036526;28;20025;-84
2024/03/18 03:35:57;;;;;;;10.43;9.25;;;12.50;99.90;;;;;;5017966;28;20041;-83
2024/03/18 03:38:23;;;;;;;12.02;10.00;;;12.50;99.90;;;;;;5034974;28;20080;-84
2024/03/18 03:40:52;;;;;;;12.35;9.38;;;12.50;99.90;;;;;;5035118;28;20025;-83
2024/03/18 03:43:22;;;;;;;10.75;9.35;;;12.50;99.90;;;;;;5017341;28;20041;-83
2024/03/18 03:45:57;;;;;;;11.65;9.40;;;12.50;99.90;;;;;;5035364;28;20039;-83
2024/03/18 03:48:24;;;;;;;11.10;9.77;;;12.50;99.90;;;;;;5035324;28;20025;-83
2024/03/18 03:50:50;;;;;;;10.60;9.48;;;12.50;99.90;;;;;;5035040;28;20061;-84
2024/03/18 03:53:17;;;;;;;11.40;10.20;;;12.50;99.90;;;;;;5035641;28;20036;-84
2024/03/18 03:55:43;;;;;;;11.95;9.38;;;12.50;99.90;;;;;;5019370;28;20048;-83
2024/03/18 03:58:09;;;;;;;10.60;8.93;;;12.50;99.90;;;;;;5029183;28;20030;-83
2024/03/18 04:00:35;;;;;;;10.85;9.85;;;12.40;99.90;;;;;;5029409;28;20043;-84
2024/03/18 04:03:01;;;;;;;13.35;10.18;;;12.50;99.90;;;;;;5038058;28;20045;-83
2024/03/18 04:05:26;;;;;;;15.02;10.25;;;12.40;99.90;;;;;;5057930;28;20065;-84
2024/03/18 04:07:52;;;;;;;13.18;10.25;;;12.40;99.90;;;;;;5055278;28;20029;-83
2024/03/18 04:10:18;;;;;;;11.15;10.00;;;12.40;99.90;;;;;;5050841;28;20033;-81
2024/03/18 04:12:44;;;;;;;11.98;10.35;;;12.40;99.90;;;;;;5021239;28;20036;-83
2024/03/18 04:15:11;;;;;;;13.10;10.38;;;12.40;99.90;;;;;;5034322;28;20037;-83
2024/03/18 04:17:37;;;;;;;11.63;10.32;;;12.40;99.90;;;;;;5001870;28;20122;-82
2024/03/18 04:20:18;;;;;;;12.27;10.20;;;12.40;99.90;;;;;;5018268;28;20030;-83
2024/03/18 04:23:04;;;;;;;13.02;10.43;;;12.40;99.90;;;;;;5034190;28;20014;-83
2024/03/18 04:25:30;;;;;;;11.88;9.93;;;12.40;99.90;;;;;;5034155;28;20037;-83
2024/03/18 04:27:57;;;;;;;13.65;11.13;;;12.40;99.90;;;;;;5033426;28;20099;-83
2024/03/18 04:30:22;;;;;;;13.38;10.43;;;12.40;99.90;;;;;;5033929;28;20030;-83
2024/03/18 04:32:48;;;;;;;12.38;10.88;;;12.40;99.90;;;;;;5017350;28;20445;-83
2024/03/18 04:35:15;;;;;;;12.05;10.75;;;12.40;99.90;;;;;;5016715;28;20041;-83
2024/03/18 04:37:48;;;;;;;12.60;10.38;;;12.40;99.90;;;;;;5017092;28;20064;-81
2024/03/18 04:40:15;;;;;;;12.27;10.60;;;12.40;99.90;;;;;;5033533;28;20053;-83
2024/03/18 04:42:40;;;;;;;18.33;10.20;;;12.40;99.90;;;;;;5033673;28;20124;-83
2024/03/18 04:45:07;;;;;;;14.07;10.45;;;12.40;99.90;;;;;;5033365;28;20468;-83
2024/03/18 04:47:41;;;;;;;12.50;10.38;;;12.40;99.90;;;;;;5017357;28;20040;-83
2024/03/18 04:50:10;;;;;;;13.13;10.70;;;12.40;99.90;;;;;;5033526;28;20458;-83
2024/03/18 04:52:36;;;;;;;12.82;10.30;;;12.40;99.90;;;;;;5034587;28;20516;-84
2024/03/18 04:55:06;;;;;;;14.45;10.52;;;12.40;99.90;;;;;;5033391;28;20029;-83
2024/03/18 04:57:33;;;;;;;11.40;10.20;;;12.30;99.90;;;;;;5017153;28;20029;-84
2024/03/18 04:59:59;;;;;;;12.65;10.60;;;12.40;99.90;;;;;;5033445;28;20466;-84
2024/03/18 05:02:24;;;;;;;12.05;10.60;;;12.40;99.90;;;;;;5034730;28;20030;-83
2024/03/18 05:04:51;;;;;;;12.45;10.27;;;12.40;99.90;;;;;;5033481;28;20034;-84
2024/03/18 05:07:17;;;;;;;12.85;10.82;;;12.40;99.90;;;;;;5033476;28;20048;-83
2024/03/18 05:09:49;;;;;;;13.88;11.25;;;12.40;99.90;;;;;;5033746;28;20457;-82
2024/03/18 05:12:15;;;;;;;12.35;10.40;;;12.40;99.90;;;;;;5032909;28;20535;-82
2024/03/18 05:14:41;;;;;;;14.40;11.70;;;12.40;99.90;;;;;;5032482;28;20033;-83
2024/03/18 05:17:07;;;;;;;12.43;10.43;;;12.40;99.90;;;;;;5016356;28;20045;-84
2024/03/18 05:19:36;;;;;;;14.57;11.57;;;12.50;99.90;;;;;;5033386;28;20032;-83
2024/03/18 05:22:10;;;;;;;12.63;11.20;;;12.40;99.90;;;;;;5017116;28;20384;-84
2024/03/18 05:24:37;;;;;;;15.45;11.50;;;12.50;99.90;;;;;;5033021;28;20026;-83
2024/03/18 05:27:04;;;;;;;14.02;11.85;;;12.50;99.90;;;;;;5033458;28;20432;-84
2024/03/18 05:29:32;;;;;;;12.70;11.40;;;12.50;99.90;;;;;;5035012;28;20041;-84
2024/03/18 05:32:15;;;;;;;13.32;11.48;;;12.50;99.90;;;;;;5018224;28;20086;-84
2024/03/18 05:34:42;;;;;;;13.07;11.02;;;12.50;99.90;;;;;;5051384;28;20044;-82
2024/03/18 05:37:09;;;;;;;12.25;10.77;;;12.50;99.90;;;;;;5040856;28;20041;-83
2024/03/18 05:39:36;;;;;;;12.88;10.93;;;12.50;99.90;;;;;;5055802;28;20009;-86
2024/03/18 05:42:03;;;;;;;12.15;10.60;;;12.50;99.90;;;;;;5041012;28;20041;-86
2024/03/18 05:44:28;;;;;;;12.05;10.70;;;12.50;99.90;;;;;;5038954;28;20030;-83
2024/03/18 05:46:54;;;;;;;12.98;11.13;;;12.50;99.90;;;;;;5033684;28;20392;-83
2024/03/18 05:49:20;;;;;;;12.90;10.38;;;12.50;99.90;;;;;;5032897;28;20072;-84
2024/03/18 05:51:48;;;;;;;12.98;11.02;;;12.50;99.90;;;;;;5032854;28;20025;-83
2024/03/18 05:54:15;;;;;;;13.10;11.70;;;12.50;99.90;;;;;;5033042;28;20084;-85
2024/03/18 05:56:41;;;;;;;12.85;11.35;;;12.50;99.90;;;;;;5033022;28;20087;-85
2024/03/18 05:59:07;;;;;;;14.77;11.82;;;12.50;99.90;;;;;;5032738;28;20043;-84
2024/03/18 06:01:33;;;;;;;13.07;11.68;;;12.50;99.90;;;;;;5032425;28;20030;-87
2024/03/18 06:03:59;;;;;;;13.98;12.35;;;12.60;99.90;;;;;;5032191;28;20366;-85
2024/03/18 06:06:27;;;;;;;15.77;13.00;;;12.50;99.90;;;;;;5016074;28;20454;-84
2024/03/18 06:08:53;;;;;;;13.63;12.23;;;12.60;99.90;;;;;;5032809;28;20032;-85
2024/03/18 06:11:19;;;;;;;14.82;11.65;;;12.60;99.90;;;;;;5016861;28;20030;-86
2024/03/18 06:13:44;;;;;;;14.43;12.65;;;12.50;99.90;;;;;;5033377;28;20496;-82
2024/03/18 06:16:10;;;;;;;15.52;12.98;;;12.50;99.90;;;;;;5019412;28;20025;-85
2024/03/18 06:18:36;;;;;;;16.70;13.13;;;12.50;99.90;;;;;;5021963;28;20068;-84
2024/03/18 06:21:02;;;;;;;14.40;12.90;;;12.50;99.90;;;;;;5028115;28;20030;-86
2024/03/18 06:23:30;;;;;;;16.63;13.18;;;12.60;99.90;;;;;;5030476;28;20021;-85
2024/03/18 06:25:58;;;;;;;14.95;13.23;;;12.60;99.90;;;;;;5042144;28;20110;-85
2024/03/18 06:28:24;;;;;;;16.75;13.48;;;12.60;99.90;;;;;;5033228;28;20034;-85
2024/03/18 06:30:50;;;;;;;14.60;12.95;;;12.60;99.90;;;;;;5032962;28;20049;-84
2024/03/18 06:33:22;;;;;;;15.75;12.88;;;12.60;99.90;;;;;;5032585;28;20481;-84
2024/03/18 06:35:49;;;;;;;15.30;13.20;;;12.60;99.90;;;;;;5032958;28;20044;-85
2024/03/18 06:38:17;;;;;;;16.73;12.02;;;12.60;99.90;;;;;;5032397;28;20100;-83
2024/03/18 06:40:44;;;;;;;15.10;12.30;;;12.60;99.90;;;;;;5032338;28;20457;-84
2024/03/18 06:43:09;;;;;;;14.25;12.75;;;12.60;99.90;;;;;;5032351;28;20026;-85
2024/03/18 06:45:36;;;;;;;17.48;12.68;;;12.60;99.90;;;;;;5031827;28;20164;-84
2024/03/18 06:48:03;;;;;;;17.23;13.85;;;12.60;99.90;;;;;;5016256;28;20036;-84
2024/03/18 06:50:30;;;;;;;15.20;12.90;;;12.70;99.90;;;;;;5033458;28;20026;-85
2024/03/18 06:52:56;;;;;;;17.05;13.75;;;12.70;99.90;;;;;;5016275;28;20030;-85
2024/03/18 06:55:22;;;;;;;14.93;13.07;;;12.70;99.90;;;;;;5032487;28;20072;-84
2024/03/18 06:57:49;;;;;;;17.45;13.25;;;12.80;99.90;;;;;;5032672;28;20381;-83
2024/03/18 07:00:18;;;;;;;17.45;13.13;;;12.70;99.90;;;;;;5036963;28;20025;-86
2024/03/18 07:02:49;;;;;;;17.52;13.40;;;12.80;99.90;;;;;;5037101;28;20022;-84
2024/03/18 07:05:21;;;;;;;14.47;12.73;;;12.80;99.90;;;;;;5037482;28;20026;-85
2024/03/18 07:07:50;;;;;;;15.18;12.13;;;12.80;99.90;;;;;;5039330;28;20094;-85
2024/03/18 07:10:16;;;;;;;15.25;12.68;;;12.80;99.90;;;;;;5055162;28;20014;-84
2024/03/18 07:12:43;;;;;;;18.17;12.70;;;12.90;99.90;;;;;;5060038;28;20026;-84
2024/03/18 07:15:13;;;;;;;16.23;12.95;;;12.90;99.90;;;;;;5043365;28;20052;-85
2024/03/18 07:17:39;;;;;;;15.60;12.70;;;12.90;99.90;;;;;;5059731;28;20048;-85
2024/03/18 07:20:07;;;;;;;17.10;13.02;;;12.90;99.90;;;;;;5070169;28;20428;-84
2024/03/18 07:22:37;;;;;;;18.42;13.13;;;12.90;99.90;;;;;;5036798;28;20018;-84
2024/03/18 07:25:03;;;;;;;15.02;12.90;;;12.90;99.90;;;;;;5035255;28;20461;-84
2024/03/18 07:27:30;;;;;;;17.50;13.32;;;12.90;99.90;;;;;;5018521;28;20028;-84
2024/03/18 07:30:00;;;;;;;16.33;13.48;;;12.90;99.90;;;;;;5019080;28;20030;-85
2024/03/18 07:32:26;;;;;;;17.77;13.03;;;12.90;99.90;;;;;;5051641;28;20021;-84
2024/03/18 07:34:52;;;;;;;15.55;13.38;;;12.90;99.90;;;;;;5036017;28;20378;-85
2024/03/18 07:37:18;;;;;;;16.75;13.48;;;12.90;99.90;;;;;;5018589;28;20531;-85
2024/03/18 07:39:48;;;;;;;16.23;13.73;;;12.90;99.90;;;;;;5034447;28;20025;-85
2024/03/18 07:42:14;;;;;;;15.68;13.40;;;12.90;99.90;;;;;;5035986;28;20017;-85
2024/03/18 07:44:40;;;;;;;17.33;13.93;;;13.00;99.90;;;;;;5034534;28;20044;-84
2024/03/18 07:47:07;;;;;;;16.67;13.55;;;13.00;99.90;;;;;;5034637;28;20108;-85
2024/03/18 07:49:36;;;;;;;16.77;14.23;;;13.00;99.90;;;;;;5018017;28;20442;-84
2024/03/18 07:52:03;;;;;;;16.05;14.32;;;13.00;99.90;;;;;;5018052;28;20021;-85
2024/03/18 07:54:30;;;;;;;15.88;13.90;;;13.10;99.90;;;;;;5017886;28;20037;-85
2024/03/18 07:56:56;;;;;;;18.80;14.45;;;13.00;99.90;;;;;;5018122;28;20033;-85
2024/03/18 07:59:22;;;;;;;15.25;13.57;;;13.10;99.90;;;;;;5034165;28;20026;-84
2024/03/18 08:01:48;;;;;;;16.52;14.35;;;13.10;99.90;;;;;;5018068;28;20099;-85
2024/03/18 08:04:15;;;;;;;17.95;15.43;;;13.10;99.90;;;;;;5035620;28;20025;-84
2024/03/18 08:06:46;;;;;;;18.38;14.93;;;13.10;99.90;;;;;;5035395;28;20057;-84
2024/03/18 08:09:22;;;;;;;17.52;15.18;;;13.20;99.90;;;;;;5017891;28;20446;-85
2024/03/18 08:11:58;;;;;;;20.23;15.82;;;13.20;99.90;;;;;;5033679;28;20128;-86
2024/03/18 08:14:24;;;;;;;20.30;15.70;;;13.30;99.90;;;;;;5017736;28;20033;-85
2024/03/18 08:16:49;;;;;;;18.40;15.35;;;13.30;99.90;;;;;;5039349;28;20056;-85
2024/03/18 08:19:15;;;;;;;20.52;16.33;;;13.30;99.90;;;;;;5037110;28;20494;-86
2024/03/18 08:21:41;;;;;;;18.05;14.50;;;13.40;99.90;;;;;;5021161;28;20042;-84
2024/03/18 08:24:06;;;;;;;22.95;16.70;;;13.30;99.90;;;;;;5037487;28;20366;-84
2024/03/18 08:26:32;;;;;;;20.20;16.50;;;13.40;99.90;;;;;;5020912;28;20029;-85
2024/03/18 08:29:01;;;;;;;20.10;15.95;;;13.40;99.90;;;;;;5020944;28;20087;-86
2024/03/18 08:31:31;;;;;;;19.23;15.70;;;13.50;99.90;;;;;;5037453;28;20029;-85
2024/03/18 08:34:00;;;;;;;21.67;16.33;;;13.50;99.90;;;;;;5038111;28;20036;-86
2024/03/18 08:36:25;;;;;;;20.50;16.20;;;13.60;99.90;;;;;;5037964;28;20033;-84
2024/03/18 08:38:51;;;;;;;20.55;16.98;;;13.60;99.90;;;;;;5021654;28;20025;-84
2024/03/18 08:41:19;;;;;;;20.17;16.05;;;13.60;99.90;;;;;;5039939;28;20045;-85
2024/03/18 08:43:45;;;;;;;22.42;16.13;;;13.60;99.90;;;;;;5055463;28;20041;-85
2024/03/18 08:46:11;;;;;;;19.15;15.68;;;13.70;99.90;;;;;;5043239;28;20021;-85
2024/03/18 08:48:37;;;;;;;19.77;15.20;;;13.70;99.90;;;;;;5061494;28;20013;-85
2024/03/18 08:51:04;;;;;;;20.92;15.93;;;13.60;99.90;;;;;;5062090;28;20073;-84
2024/03/18 08:53:31;;;;;;;19.50;15.85;;;13.60;99.90;;;;;;5061684;28;20072;-85
2024/03/18 08:55:59;;;;;;;18.60;16.27;;;13.70;99.90;;;;;;5057137;28;20057;-86
2024/03/18 08:58:24;;;;;;;19.50;14.90;;;13.70;99.90;;;;;;5037137;28;20492;-85
2024/03/18 09:00:50;;;;;;;21.42;15.15;;;13.80;99.90;;;;;;5036240;28;20021;-83
2024/03/18 09:03:17;;;;;;;18.55;15.90;;;13.70;99.90;;;;;;5035996;28;20032;-84
2024/03/18 09:05:43;;;;;;;21.00;15.90;;;13.70;99.90;;;;;;5054447;28;20079;-85
2024/03/18 09:08:10;;;;;;;19.75;15.38;;;13.70;99.90;;;;;;5036280;28;20021;-85
2024/03/18 09:10:37;;;;;;;17.30;14.98;;;13.60;99.90;;;;;;5036366;28;20398;-86
2024/03/18 09:13:03;;;;;;;19.75;14.50;;;13.50;99.90;;;;;;5036539;28;20465;-85
2024/03/18 09:15:29;;;;;;;19.75;15.27;;;13.50;99.90;;;;;;5036508;28;20032;-86
2024/03/18 09:17:57;;;;;;;20.33;14.55;;;13.50;99.90;;;;;;5019683;28;20071;-85
2024/03/18 09:20:23;;;;;;;20.17;15.88;;;13.50;99.90;;;;;;5019748;28;20021;-85
2024/03/18 09:22:49;;;;;;;20.75;14.77;;;13.40;99.90;;;;;;5034995;28;20469;-85
2024/03/18 09:25:15;;;;;;;21.13;14.98;;;13.40;99.90;;;;;;5036132;28;20123;-84
2024/03/18 09:27:41;;;;;;;21.05;15.02;;;13.30;99.90;;;;;;5019910;28;20022;-85
2024/03/18 09:30:07;;;;;;;21.60;15.50;;;13.30;99.90;;;;;;5054193;28;20025;-85
2024/03/18 09:32:33;;;;;;;20.75;15.82;;;13.30;99.90;;;;;;5019963;28;20025;-86
2024/03/18 09:34:58;;;;;;;22.20;16.42;;;13.30;99.90;;;;;;5036177;28;20118;-85
2024/03/18 09:37:28;;;;;;;21.98;15.27;;;13.30;99.90;;;;;;5036296;28;20029;-84
2024/03/18 09:39:55;;;;;;;20.35;15.80;;;13.30;99.90;;;;;;5036122;28;20490;-84
2024/03/18 09:42:20;;;;;;;21.90;15.88;;;13.40;99.90;;;;;;5019962;28;20482;-86
2024/03/18 09:44:46;;;;;;;20.70;15.30;;;13.40;99.90;;;;;;5054108;28;20025;-85
2024/03/18 09:47:32;;;;;;;22.13;15.73;;;13.40;99.90;;;;;;5036416;28;20461;-85
2024/03/18 09:49:58;;;;;;;20.40;15.55;;;13.40;99.90;;;;;;5020201;28;20021;-86
2024/03/18 09:52:29;;;;;;;24.58;16.45;;;13.40;99.90;;;;;;5036561;28;20029;-84
2024/03/18 09:54:55;;;;;;;23.20;15.35;;;13.30;99.90;;;;;;5053902;28;20013;-85
2024/03/18 09:57:24;;;;;;;20.75;14.70;;;13.40;99.90;;;;;;5019688;28;20025;-85
2024/03/18 09:59:53;;;;;;;22.15;16.35;;;13.40;99.90;;;;;;5020081;28;20059;-85
2024/03/18 10:02:19;;;;;;;23.13;15.65;;;13.50;99.90;;;;;;5054066;28;20056;-85
2024/03/18 10:04:48;;;;;;;22.25;16.17;;;13.50;99.90;;;;;;5036756;28;20025;-84
2024/03/18 10:07:16;;;;;;;18.70;13.77;;;13.60;99.90;;;;;;5056659;28;20036;-85
2024/03/18 10:09:45;;;;;;;21.95;14.73;;;13.60;99.90;;;;;;5036089;28;20064;-86
2024/03/18 10:12:15;;;;;;;16.85;13.57;;;13.60;99.90;;;;;;5037564;28;20029;-83
2024/03/18 10:14:42;;;;;;;16.42;12.45;;;13.70;99.90;;;;;;5022351;28;20091;-85
2024/03/18 10:17:15;;;;;;;15.80;11.68;;;13.70;99.90;;;;;;5056522;28;20520;-85
2024/03/18 10:19:47;;;;;;;16.42;12.98;;;13.80;99.90;;;;;;5037180;28;20025;-86
2024/03/18 10:22:15;;;;;;;16.88;13.18;;;13.80;99.90;;;;;;5037084;28;20025;-84
2024/03/18 10:24:44;;;;;;;15.63;12.88;;;13.80;99.90;;;;;;5053983;28;20035;-84
2024/03/18 10:27:13;;;;;;;16.35;12.15;;;13.90;99.90;;;;;;5060589;28;20013;-85
2024/03/18 10:29:48;;;;;;;14.65;12.45;;;14.00;99.90;;;;;;5043965;28;20052;-85
2024/03/18 10:32:26;;;;;;;14.32;11.93;;;14.00;99.90;;;;;;5044019;28;20030;-85
2024/03/18 10:34:58;;;;;;;19.55;12.60;;;14.10;99.90;;;;;;5034082;28;20044;-85
2024/03/18 10:37:30;;;;;;;15.48;11.77;;;14.20;99.90;;;;;;5039963;28;20461;-85
2024/03/18 10:40:05;;;;;;;14.45;10.55;;;14.30;99.90;;;;;;5040081;28;20055;-86
2024/03/18 10:42:32;;;;;;;12.95;9.35;;;14.30;99.90;;;;;;5040148;28;20029;-85
2024/03/18 10:45:28;;;;;;;13.98;9.20;;;14.40;99.90;;;;;;5041362;28;20098;-85
2024/03/18 10:47:55;;;;;;;11.32;8.57;;;14.40;99.90;;;;;;5037091;28;20044;-84
2024/03/18 10:50:23;;;;;;;11.50;8.23;;;14.40;99.90;;;;;;5041706;28;20029;-85
2024/03/18 10:52:50;;;;;;;11.20;8.50;;;14.50;99.90;;;;;;5039651;28;20013;-85
2024/03/18 10:55:18;;;;;;;9.95;7.35;;;14.40;99.90;;;;;;5022757;28;20041;-84
2024/03/18 10:57:49;;;;;;;11.35;7.45;;;14.50;99.90;;;;;;5038572;28;20500;-86
2024/03/18 11:00:18;;;;;;;;;;;14.50;99.90;;;;;;5039162;28;20060;-85
2024/03/18 11:03:20;;;;;;;12.02;9.13;;;14.50;99.90;;;;;;5038751;28;19908;-84
2024/03/18 11:05:50;;;;;;;15.25;10.20;;;14.40;99.90;;;;;;5034611;28;20096;-84
2024/03/18 11:08:21;;;;;;;12.98;10.27;;;14.40;99.90;;;;;;5038983;28;20526;-84
2024/03/18 11:10:48;;;;;;;15.73;10.50;;;14.40;99.90;;;;;;5022268;28;20469;-86
2024/03/18 11:13:14;;;;;;;15.55;10.98;;;14.30;99.90;;;;;;5022606;28;20098;-83
2024/03/18 11:15:51;;;;;;;14.02;10.43;;;14.30;99.90;;;;;;5038675;28;20481;-85
2024/03/18 11:18:27;;;;;;;15.32;11.60;;;14.30;99.90;;;;;;5038322;28;20091;-85
2024/03/18 11:20:55;;;;;;;18.80;12.18;;;14.20;99.90;;;;;;5038581;28;20024;-84
2024/03/18 11:23:32;;;;;;;14.85;11.00;;;14.20;99.90;;;;;;5038642;28;20021;-84
2024/03/18 11:26:04;;;;;;;16.45;10.80;;;14.20;99.90;;;;;;5038496;28;20444;-85
2024/03/18 11:28:45;;;;;;;16.73;11.88;;;14.10;99.90;;;;;;5038810;28;20372;-83
2024/03/18 11:31:16;;;;;;;16.08;11.50;;;14.10;99.90;;;;;;5056262;28;20063;-86
2024/03/18 11:33:44;;;;;;;14.35;11.60;;;14.10;99.90;;;;;;5038385;28;20029;-84
2024/03/18 11:36:15;;;;;;;15.77;11.85;;;14.10;99.90;;;;;;5021611;28;20057;-85
2024/03/18 11:38:41;;;;;;;17.08;12.05;;;14.10;99.90;;;;;;5038648;28;20031;-84
2024/03/18 11:41:07;;;;;;;18.38;11.85;;;14.20;99.90;;;;;;5055686;28;20021;-85
2024/03/18 11:43:36;;;;;;;20.85;12.63;;;14.20;99.90;;;;;;5038430;28;20063;-84
2024/03/18 11:46:05;;;;;;;18.10;12.70;;;14.30;99.90;;;;;;5037224;28;20025;-85
2024/03/18 11:48:31;;;;;;;18.85;12.75;;;14.40;99.90;;;;;;5038320;28;20056;-85
2024/03/18 11:50:59;;;;;;;17.77;11.88;;;14.40;99.90;;;;;;5037976;28;20028;-85
2024/03/18 11:53:27;;;;;;;16.35;11.90;;;14.40;99.90;;;;;;5021976;28;20032;-85
2024/03/18 11:55:53;;;;;;;17.55;11.55;;;14.50;99.90;;;;;;5038190;28;20420;-84
2024/03/18 11:58:20;;;;;;;18.77;11.77;;;14.60;99.90;;;;;;5038342;28;20046;-85
2024/03/18 12:00:48;;;;;;;15.63;10.55;;;14.70;99.90;;;;;;5023599;28;20032;-84
2024/03/18 12:03:16;;;;;;;17.02;11.80;;;14.80;99.90;;;;;;5055281;28;20051;-85
2024/03/18 12:05:46;;;;;;;18.73;11.10;;;14.90;99.90;;;;;;5079644;28;20018;-85
2024/03/18 12:08:17;;;;;;;16.98;11.00;;;15.00;99.90;;;;;;5046013;28;20092;-85
2024/03/18 12:10:44;;;;;;;;;;;15.10;99.90;;;;;;5080322;28;20025;-84
2024/03/18 12:13:11;;;;;;;17.50;10.68;;;15.20;99.90;;;;;;5035167;28;20311;-84
2024/03/18 12:15:36;;;;;;;13.82;9.75;;;15.30;99.90;;;;;;5037428;28;20489;-84
2024/03/18 12:18:06;;;;;;;16.02;9.68;;;15.30;99.90;;;;;;5037729;28;20321;-84
2024/03/18 12:20:32;;;;;;;16.55;9.35;;;15.40;99.90;;;;;;5021158;28;20025;-85
2024/03/18 12:23:06;;;;;;;14.80;8.93;;;15.40;99.90;;;;;;5037387;28;20029;-86
2024/03/18 12:28:32;;;;;;;11.18;7.75;;;15.60;99.90;;;;;;5055344;28;20085;-85
2024/03/18 12:30:59;;;;;;;18.80;9.70;;;15.70;99.90;;;;;;5055225;28;20029;-84
2024/03/18 12:33:25;;;;;;;14.80;8.63;;;15.70;99.90;;;;;;5055187;28;20376;-84
2024/03/18 12:35:51;;;;;;;17.00;8.52;;;15.80;99.90;;;;;;5037105;28;20444;-83
2024/03/18 12:38:17;;;;;;;14.13;8.23;;;15.90;99.90;;;;;;5020553;28;20265;-84